Tryon, OK (74875)

4:25 AM CDT on September 16, 2014 (GMT -0500)
6 mi. S (Ham Radio KC5DPT) | Change Station
CLOSE
Current Station
Personal Weather Station
Location: Stillwater, OK
Elevation: 938 ft
Nearby Weather Stations
4.0 Earthquake: Guthrie, Oklahoma (13 hours ago)  

Elev 938 ft 36.02 °N, 97.05 °W | Updated 6 seconds ago

Partly Cloudy
Partly Cloudy
67.5 °F
Feels Like 67.5 °F
N
0.0
Wind Variable Wind from SE
Gusts 1.0 mph

Today
High -- | Low -- °F
--% Chance of Precip.
Yesterday
High -- | Low -- °F
Precip. -- in
7:11 AM 7:33 PM
Waning Gibbous, 47% visible
Pressure 30.15 in
Visibility 5.0 miles
Clouds Scattered Clouds 5000 ft
Dew Point 65 °F
Humidity 91%
Rainfall 0.00 in
Snow Depth Not available.
UV 0 out of 12
Pollen 7.80 out of 12
Air Quality Not available.
Flu Activity Not available.
METAR KCQB 160915Z AUTO 16003KT 5SM BR SCT050 22/22 A3015 RMK AO2

More Conditions Fewer Conditions

Pressure 30.15 in
Visibility 5.0 miles
Clouds Scattered Clouds 5000 ft
Dew Point 65 °F
Humidity 91%
Rainfall 0.00 in
Snow Depth Not available.
UV 0 out of 12
Pollen 7.80 out of 12
Air Quality Not available.
Flu Activity Not available.
METAR KCQB 160915Z AUTO 16003KT 5SM BR SCT050 22/22 A3015 RMK AO2

More Conditions Fewer Conditions

10-Day Weather Forecast

Almanac

Astronomy

Sep. 16, 2014 Rise Set
Actual Time 7:11 AM CDT 7:33 PM CDT
Civil Twilight 6:45 AM CDT 7:59 PM CDT
Nautical Twilight 6:15 AM CDT 8:29 PM CDT
Astronomical Twilight 5:45 AM CDT 8:59 PM CDT
Moon 12:30 AM CDT 2:50 PM CDT
Length of Visible Light 13h 13m
Length of Day
12h 22m
Tomorrow will be 2m 15s shorter.
Waning Gibbous, 47% of the Moon is Illuminated
Today
Waning Gibbous
Sep 24
New
Oct 1
First Quarter
Oct 8
Full
Oct 15
Last Quarter

Today's Extremes

State Highs State Lows

Community

WunderPhotos

Upload Photos

1,753,714 photos uploaded!

WunderBlogs® & News

Nearby

Snow Depth

Station Depth Elevation
No new snow has been reported.

Earthquake Activity

City Distance Mag. Time & Date
Guthrie, Oklahoma 21 miles 2.7 4:00 PM CDT
2014-09-15
Guthrie, Oklahoma 21 miles 3.2 3:14 PM CDT
2014-09-15
Guthrie, Oklahoma 21 miles 4.0 3:08 PM CDT
2014-09-15
Enid, Oklahoma 74 miles 3.1 8:27 AM CDT
2014-09-15
Minimum magnitude displayed is 2.5.

Coastal Water Temperatures

Place Temperature
No Stations Reporting

Nearby Weather Stations